createdAt,value
2019-04-22T00:00:22.630Z,0.00
2019-04-22T00:01:24.458Z,0.00
2019-04-22T00:02:18.752Z,0.00
2019-04-22T00:03:20.696Z,0.00
2019-04-22T00:04:29.831Z,0.00
2019-04-22T00:05:41.473Z,0.00
2019-04-22T00:06:39.479Z,0.00
2019-04-22T00:07:45.939Z,0.00
2019-04-22T00:08:47.613Z,0.00
2019-04-22T00:09:46.178Z,0.00
2019-04-22T00:10:48.690Z,0.00
2019-04-22T00:12:49.987Z,0.00
2019-04-22T00:13:47.175Z,0.00
2019-04-22T00:14:38.827Z,0.00
2019-04-22T00:15:37.059Z,0.00
2019-04-22T00:16:47.046Z,0.00
2019-04-22T00:17:48.579Z,0.00
2019-04-22T00:18:54.829Z,0.00
2019-04-22T00:19:43.857Z,0.00
2019-04-22T00:20:42.324Z,0.00
2019-04-22T00:21:46.069Z,0.00
2019-04-22T00:22:42.670Z,0.00
2019-04-22T00:23:39.325Z,0.00
2019-04-22T00:24:46.109Z,0.00
2019-04-22T00:25:52.890Z,0.00
2019-04-22T00:26:45.637Z,0.00
2019-04-22T00:28:43.785Z,0.00
2019-04-22T00:30:44.898Z,0.00
2019-04-22T00:31:40.467Z,0.00
2019-04-22T00:32:36.287Z,0.00
2019-04-22T00:33:39.420Z,0.00
2019-04-22T00:34:45.476Z,0.00
2019-04-22T00:35:42.017Z,0.00
2019-04-22T00:36:46.023Z,0.00
2019-04-22T00:37:43.158Z,0.00
2019-04-22T00:38:44.325Z,0.00
2019-04-22T00:39:42.725Z,0.00
2019-04-22T00:40:39.950Z,0.00
2019-04-22T00:41:44.392Z,0.00
2019-04-22T00:42:41.322Z,0.00
2019-04-22T00:43:39.583Z,0.00
2019-04-22T00:44:46.644Z,0.00
2019-04-22T00:45:43.100Z,0.00
2019-04-22T00:46:48.755Z,0.00
2019-04-22T00:47:39.973Z,0.00
2019-04-22T00:48:48.626Z,0.00
2019-04-22T00:50:46.670Z,0.00
2019-04-22T00:51:44.332Z,0.00
2019-04-22T00:52:40.409Z,0.00
2019-04-22T00:53:44.313Z,0.00
2019-04-22T00:54:49.514Z,0.00
2019-04-22T00:55:43.979Z,0.00
2019-04-22T00:56:42.329Z,0.00
2019-04-22T00:57:42.142Z,0.00
2019-04-22T00:58:41.195Z,0.00
2019-04-22T00:59:40.527Z,0.00
2019-04-22T01:00:51.853Z,0.00
2019-04-22T01:01:37.080Z,0.00
2019-04-22T01:02:46.177Z,0.00
2019-04-22T01:05:00.766Z,0.00
2019-04-22T01:05:42.312Z,0.00
2019-04-22T01:06:41.622Z,0.00
2019-04-22T01:07:36.889Z,0.00
2019-04-22T01:08:48.112Z,0.00
2019-04-22T01:09:44.961Z,0.00
2019-04-22T01:10:45.229Z,0.00
2019-04-22T01:11:37.851Z,0.00
2019-04-22T01:12:39.623Z,0.00
2019-04-22T01:13:38.686Z,0.00
2019-04-22T01:14:44.346Z,0.00
2019-04-22T01:15:45.077Z,0.00
2019-04-22T01:16:44.201Z,0.00
2019-04-22T01:17:43.507Z,0.00
2019-04-22T01:18:38.003Z,0.00
2019-04-22T01:19:47.120Z,0.00
2019-04-22T01:21:00.572Z,0.00
2019-04-22T01:21:40.770Z,0.00
2019-04-22T01:22:34.168Z,0.00
2019-04-22T01:23:34.548Z,0.00
2019-04-22T01:24:34.920Z,0.00
2019-04-22T01:25:37.437Z,0.00
2019-04-22T01:26:29.005Z,0.00
2019-04-22T01:27:30.970Z,0.00
2019-04-22T01:28:30.168Z,0.00
2019-04-22T01:30:26.579Z,0.00
2019-04-22T01:31:20.370Z,0.00
2019-04-22T01:32:22.867Z,0.00
2019-04-22T01:33:23.824Z,0.00
2019-04-22T01:34:28.850Z,0.00
2019-04-22T01:35:31.114Z,0.00
2019-04-22T01:36:35.270Z,0.00
2019-04-22T01:37:36.898Z,0.00
2019-04-22T01:38:43.281Z,0.00
2019-04-22T01:39:44.092Z,0.00
2019-04-22T01:40:45.514Z,0.00
2019-04-22T01:41:48.797Z,0.00
2019-04-22T01:42:39.805Z,0.00
2019-04-22T01:44:40.796Z,0.00
2019-04-22T01:45:42.183Z,0.00
2019-04-22T01:46:45.058Z,0.00
2019-04-22T01:48:39.318Z,0.00
2019-04-22T01:49:40.060Z,0.00
2019-04-22T01:50:37.961Z,0.00
2019-04-22T01:51:52.879Z,0.00
2019-04-22T01:52:39.946Z,0.00
2019-04-22T01:53:43.291Z,0.00
2019-04-22T01:54:45.435Z,0.00
2019-04-22T01:56:41.065Z,0.00
2019-04-22T01:57:39.921Z,0.00
2019-04-22T01:58:36.276Z,0.00
2019-04-22T01:59:31.778Z,0.00
2019-04-22T02:00:39.623Z,0.00
2019-04-22T02:01:48.554Z,0.00
2019-04-22T02:02:41.689Z,0.00
2019-04-22T02:03:43.079Z,0.00
2019-04-22T02:05:40.312Z,0.00
2019-04-22T02:06:45.694Z,0.00
2019-04-22T02:07:42.414Z,0.00
2019-04-22T02:08:45.144Z,0.00
2019-04-22T02:10:53.089Z,0.00
2019-04-22T02:11:46.712Z,0.00
2019-04-22T02:12:43.334Z,0.00
2019-04-22T02:13:47.920Z,0.00
2019-04-22T02:14:44.324Z,0.00
2019-04-22T02:15:46.522Z,0.00
2019-04-22T02:16:41.635Z,0.00
2019-04-22T02:20:35.863Z,0.00
2019-04-22T02:21:38.538Z,0.00
2019-04-22T02:23:10.198Z,0.00
2019-04-22T02:23:49.505Z,0.00
2019-04-22T02:25:42.720Z,0.00
2019-04-22T02:26:40.241Z,0.00
2019-04-22T02:27:52.427Z,0.00
2019-04-22T02:29:43.473Z,0.00
2019-04-22T02:30:50.683Z,0.00
2019-04-22T02:31:45.338Z,0.00
2019-04-22T02:33:08.616Z,0.00
2019-04-22T02:34:49.765Z,0.00
2019-04-22T02:35:58.398Z,0.00
2019-04-22T02:37:35.940Z,0.00
2019-04-22T02:38:59.060Z,0.00
2019-04-22T02:39:43.081Z,0.00
2019-04-22T02:40:59.701Z,0.00
2019-04-22T02:42:00.657Z,0.00
2019-04-22T02:42:35.170Z,0.00
2019-04-22T02:44:42.160Z,0.00
2019-04-22T02:45:50.303Z,0.00
2019-04-22T02:47:01.135Z,0.00
2019-04-22T02:47:47.601Z,0.00
2019-04-22T02:50:45.400Z,0.00
2019-04-22T02:54:47.214Z,0.00
2019-04-22T02:55:55.336Z,0.00
2019-04-22T02:56:38.159Z,0.00
2019-04-22T02:57:41.523Z,0.00
2019-04-22T02:58:56.695Z,0.00
2019-04-22T02:59:52.587Z,0.00
2019-04-22T03:00:45.883Z,0.00
2019-04-22T03:02:50.690Z,0.00
2019-04-22T03:04:45.377Z,0.00
2019-04-22T03:05:59.253Z,0.00
2019-04-22T03:07:50.638Z,0.00
2019-04-22T03:08:51.243Z,0.00
2019-04-22T03:09:45.214Z,0.00
2019-04-22T03:10:56.520Z,0.00
2019-04-22T03:11:52.549Z,0.00
2019-04-22T03:14:42.922Z,0.00
2019-04-22T03:15:55.432Z,0.00
2019-04-22T03:16:57.277Z,0.00
2019-04-22T03:18:00.862Z,0.00
2019-04-22T03:19:50.436Z,0.00
2019-04-22T03:20:41.942Z,0.00
2019-04-22T03:21:36.697Z,4.00
2019-04-22T03:25:27.515Z,4.00
2019-04-22T03:26:00.413Z,4.00
2019-04-22T03:26:45.798Z,4.00
2019-04-22T03:29:59.807Z,8.00
2019-04-22T03:33:51.735Z,12.00
2019-04-22T03:39:06.152Z,28.00
2019-04-22T03:40:46.474Z,36.00
2019-04-22T03:42:02.512Z,40.00
2019-04-22T03:42:52.342Z,48.00
2019-04-22T03:44:00.711Z,56.00
2019-04-22T03:45:34.017Z,76.00
2019-04-22T03:46:53.362Z,88.00
2019-04-22T03:47:47.859Z,100.00
2019-04-22T03:48:45.791Z,112.00
2019-04-22T03:49:58.417Z,132.00
2019-04-22T03:51:05.190Z,148.00
2019-04-22T03:52:03.046Z,164.00
2019-04-22T03:52:38.710Z,184.00
2019-04-22T03:53:40.345Z,208.00
2019-04-22T03:54:47.215Z,232.00
2019-04-22T03:58:26.226Z,316.00
2019-04-22T03:58:51.194Z,352.00
2019-04-22T04:00:49.685Z,420.00
2019-04-22T04:03:40.427Z,540.00
2019-04-22T04:04:47.479Z,584.00
2019-04-22T04:05:45.559Z,632.00
2019-04-22T04:06:59.708Z,680.00
2019-04-22T04:07:47.544Z,728.00
2019-04-22T04:09:45.635Z,832.00
2019-04-22T04:10:40.224Z,888.00
2019-04-22T04:11:53.830Z,944.00
2019-04-22T04:12:51.089Z,1004.00
2019-04-22T04:13:50.171Z,1060.00
2019-04-22T04:14:47.183Z,1116.00
2019-04-22T04:16:48.062Z,1244.00
2019-04-22T04:17:44.472Z,1308.00
2019-04-22T04:18:47.473Z,1372.00
2019-04-22T04:20:51.158Z,1500.00
2019-04-22T04:21:41.369Z,1564.00
2019-04-22T04:24:01.225Z,1696.00
2019-04-22T04:26:59.199Z,1892.00
2019-04-22T04:28:50.407Z,2008.00
2019-04-22T04:31:51.310Z,2204.00
2019-04-22T04:33:50.611Z,2356.00
2019-04-22T04:35:07.694Z,2428.00
2019-04-22T04:36:42.534Z,2560.00
2019-04-22T04:38:46.260Z,2676.00
2019-04-22T04:39:51.130Z,2732.00
2019-04-22T04:40:44.953Z,2788.00
2019-04-22T04:43:50.515Z,2940.00
2019-04-22T04:45:45.198Z,3032.00
2019-04-22T04:47:06.093Z,3072.00
2019-04-22T04:47:47.578Z,3116.00
2019-04-22T04:49:48.419Z,3232.00
2019-04-22T04:52:03.054Z,3376.00
2019-04-22T04:53:04.789Z,3444.00
2019-04-22T04:55:53.282Z,3640.00
2019-04-22T04:56:40.431Z,3700.00
2019-04-22T04:58:06.097Z,3760.00
2019-04-22T05:01:45.128Z,3936.00
2019-04-22T05:03:48.893Z,3988.00
2019-04-22T05:07:40.519Z,3984.00
2019-04-22T05:09:01.505Z,4016.00
2019-04-22T05:09:34.051Z,4256.00
2019-04-22T05:11:54.035Z,4708.00
2019-04-22T05:13:49.426Z,5184.00
2019-04-22T05:14:41.511Z,5680.00
2019-04-22T05:15:46.204Z,6156.00
2019-04-22T05:18:54.639Z,6080.00
2019-04-22T05:19:33.149Z,6628.00
2019-04-22T05:20:59.733Z,8924.00
2019-04-22T05:21:53.107Z,10728.00
2019-04-22T05:23:41.952Z,11388.00
2019-04-22T05:24:38.094Z,11804.00
2019-04-22T05:25:55.072Z,12340.00
2019-04-22T05:26:40.011Z,12328.00
2019-04-22T05:28:38.158Z,11812.00
2019-04-22T05:29:46.502Z,12336.00
2019-04-22T05:30:36.908Z,12744.00
2019-04-22T05:31:38.928Z,13400.00
2019-04-22T05:32:37.040Z,12820.00
2019-04-22T05:33:34.947Z,12720.00
2019-04-22T05:34:34.609Z,14360.00
2019-04-22T05:35:31.216Z,14812.00
2019-04-22T05:36:34.409Z,14464.00
2019-04-22T05:37:35.550Z,15392.00
2019-04-22T05:38:44.328Z,16576.00
2019-04-22T05:39:34.022Z,16736.00
2019-04-22T05:40:29.363Z,16576.00
2019-04-22T05:41:36.420Z,15520.00
2019-04-22T05:42:29.057Z,14112.00
2019-04-22T05:43:35.801Z,14496.00
2019-04-22T05:44:34.353Z,16608.00
2019-04-22T05:45:35.789Z,17632.00
2019-04-22T05:46:26.177Z,17248.00
2019-04-22T05:47:33.378Z,17632.00
2019-04-22T05:48:41.850Z,19136.00
2019-04-22T05:49:28.912Z,19424.00
2019-04-22T05:50:29.358Z,18624.00
2019-04-22T05:51:37.050Z,18688.00
2019-04-22T05:52:31.574Z,18880.00
2019-04-22T05:53:37.228Z,18336.00
2019-04-22T05:54:33.064Z,18720.00
2019-04-22T05:55:35.869Z,21120.00
2019-04-22T05:56:47.704Z,22176.00
2019-04-22T05:57:35.648Z,21056.00
2019-04-22T05:58:40.089Z,20352.00
2019-04-22T05:59:34.408Z,21280.00
2019-04-22T06:01:01.930Z,21888.00
2019-04-22T06:03:35.219Z,23072.00
2019-04-22T06:04:29.590Z,22944.00
2019-04-22T06:06:34.217Z,21120.00
2019-04-22T06:07:33.957Z,20256.00
2019-04-22T06:08:29.593Z,21312.00
2019-04-22T06:09:28.456Z,25440.00
2019-04-22T06:11:51.954Z,27552.00
2019-04-22T06:12:26.518Z,24832.00
2019-04-22T06:13:28.081Z,23104.00
2019-04-22T06:14:34.567Z,23328.00
2019-04-22T06:15:29.076Z,25248.00
2019-04-22T06:16:31.343Z,27328.00
2019-04-22T06:17:55.054Z,27776.00
2019-04-22T06:18:33.353Z,29184.00
2019-04-22T06:19:31.891Z,30464.00
2019-04-22T06:20:32.743Z,29760.00
2019-04-22T06:21:35.645Z,28384.00
2019-04-22T06:22:40.038Z,27456.00
2019-04-22T06:23:44.418Z,29056.00
2019-04-22T06:24:53.864Z,31776.00
2019-04-22T06:25:55.400Z,31840.00
2019-04-22T06:26:39.386Z,30720.00
2019-04-22T06:27:38.640Z,30912.00
2019-04-22T06:28:47.151Z,30784.00
2019-04-22T06:29:31.890Z,29568.00
2019-04-22T06:30:49.001Z,28320.00
2019-04-22T06:33:49.822Z,33664.00
2019-04-22T06:36:37.430Z,39136.00
2019-04-22T06:37:33.664Z,39200.00
2019-04-22T06:39:34.360Z,33856.00
2019-04-22T06:40:32.859Z,30816.00
2019-04-22T06:41:35.404Z,30304.00
2019-04-22T06:42:39.998Z,32736.00
2019-04-22T06:43:35.586Z,36640.00
2019-04-22T06:44:29.611Z,40096.00
2019-04-22T06:45:30.584Z,41440.00
2019-04-22T06:46:37.852Z,39584.00
2019-04-22T06:47:44.120Z,36704.00
2019-04-22T06:48:30.087Z,34976.00
2019-04-22T06:50:36.795Z,39840.00
2019-04-22T06:51:32.910Z,42976.00
2019-04-22T06:52:28.165Z,43840.00
2019-04-22T06:54:34.262Z,40672.00
2019-04-22T06:55:36.788Z,40320.00
2019-04-22T06:56:27.829Z,40352.00
2019-04-22T06:57:30.840Z,41120.00
2019-04-22T06:58:28.944Z,43168.00
2019-04-22T06:59:31.175Z,44352.00
2019-04-22T07:00:32.384Z,44256.00
2019-04-22T07:04:31.743Z,41120.00
2019-04-22T07:05:32.867Z,44544.00
2019-04-22T07:06:35.741Z,45888.00
2019-04-22T07:07:33.358Z,46144.00
2019-04-22T07:09:38.286Z,43872.00
2019-04-22T07:10:36.689Z,43360.00
2019-04-22T07:11:33.375Z,45152.00
2019-04-22T07:12:30.212Z,47616.00
2019-04-22T07:14:30.279Z,51104.00
2019-04-22T07:15:46.376Z,51232.00
2019-04-22T07:16:34.648Z,50400.00
2019-04-22T07:17:38.043Z,49696.00
2019-04-22T07:18:35.982Z,49984.00
2019-04-22T07:19:33.550Z,50720.00
2019-04-22T07:20:30.486Z,50528.00
2019-04-22T07:21:30.833Z,48576.00
2019-04-22T07:22:38.904Z,47488.00
2019-04-22T07:23:37.411Z,48672.00
2019-04-22T07:24:45.956Z,51488.00
2019-04-22T07:25:30.995Z,53984.00
2019-04-22T07:26:25.009Z,55584.00
2019-04-22T07:27:28.043Z,57568.00
2019-04-22T07:28:27.376Z,58272.00
2019-04-22T07:29:37.519Z,57760.00
2019-04-22T07:30:54.626Z,56768.00
2019-04-22T07:31:28.890Z,55200.00
2019-04-22T07:32:54.905Z,53440.00
2019-04-22T07:33:32.506Z,52672.00
2019-04-22T07:34:29.584Z,52608.00
2019-04-22T07:35:42.906Z,52576.00
2019-04-22T07:37:43.448Z,54528.00
2019-04-22T07:38:26.899Z,57440.00
2019-04-22T07:39:30.854Z,59008.00
2019-04-22T07:40:34.035Z,58144.00
2019-04-22T07:41:34.555Z,55936.00
2019-04-22T07:42:31.069Z,54720.00
2019-04-22T07:43:39.770Z,57952.00
2019-04-22T07:44:30.891Z,63072.00
2019-04-22T07:45:30.008Z,65600.00
2019-04-22T07:46:33.553Z,66304.00
2019-04-22T07:47:34.123Z,67776.00
2019-04-22T07:48:45.311Z,68256.00
2019-04-22T07:49:41.041Z,67264.00
2019-04-22T07:50:42.793Z,65376.00
2019-04-22T07:51:34.118Z,63360.00
2019-04-22T07:52:27.823Z,62816.00
2019-04-22T07:53:32.426Z,63232.00
2019-04-22T07:54:31.644Z,65952.00
2019-04-22T07:55:26.983Z,66624.00
2019-04-22T07:56:30.523Z,64064.00
2019-04-22T07:57:44.521Z,61024.00
2019-04-22T07:58:29.245Z,58016.00
2019-04-22T07:59:28.029Z,56384.00
2019-04-22T08:00:29.472Z,58560.00
2019-04-22T08:01:50.477Z,62720.00
2019-04-22T08:02:31.777Z,71168.00
2019-04-22T08:03:38.094Z,78912.00
2019-04-22T08:04:49.970Z,77696.00
2019-04-22T08:05:33.373Z,69728.00
2019-04-22T08:06:29.557Z,61376.00
2019-04-22T08:07:33.325Z,60832.00
2019-04-22T08:08:29.236Z,63808.00
2019-04-22T08:09:41.904Z,69984.00
2019-04-22T08:12:34.945Z,74144.00
2019-04-22T08:13:31.275Z,74752.00
2019-04-22T08:14:34.416Z,75872.00
2019-04-22T08:15:32.687Z,72256.00
2019-04-22T08:16:32.890Z,69184.00
2019-04-22T08:17:51.866Z,66464.00
2019-04-22T08:19:33.161Z,73728.00
2019-04-22T08:20:28.988Z,78816.00
2019-04-22T08:21:29.882Z,82144.00
2019-04-22T08:22:27.218Z,81504.00
2019-04-22T08:23:33.603Z,80032.00
2019-04-22T08:24:37.528Z,76672.00
2019-04-22T08:25:36.748Z,72320.00
2019-04-22T08:26:32.253Z,67872.00
2019-04-22T08:27:33.464Z,66176.00
2019-04-22T08:28:30.320Z,67840.00
2019-04-22T08:29:43.796Z,71264.00
2019-04-22T08:30:33.851Z,73856.00
2019-04-22T08:32:34.973Z,77216.00
2019-04-22T08:33:35.504Z,75808.00
2019-04-22T08:34:29.601Z,73152.00
2019-04-22T08:35:48.968Z,71232.00
2019-04-22T08:36:31.710Z,70784.00
2019-04-22T08:38:37.262Z,68128.00
2019-04-22T08:39:40.593Z,68640.00
2019-04-22T08:41:33.093Z,70336.00
2019-04-22T08:42:51.022Z,70528.00
2019-04-22T08:43:38.092Z,72160.00
2019-04-22T08:45:31.774Z,75712.00
2019-04-22T08:46:49.027Z,75872.00
2019-04-22T08:47:30.999Z,74240.00
2019-04-22T08:48:29.607Z,72192.00
2019-04-22T08:49:33.198Z,71488.00
2019-04-22T08:50:29.477Z,72736.00
2019-04-22T08:52:27.482Z,74208.00
2019-04-22T08:53:35.889Z,76768.00
2019-04-22T08:54:33.948Z,77952.00
2019-04-22T08:55:32.945Z,75744.00
2019-04-22T08:56:33.626Z,69888.00
2019-04-22T08:57:34.718Z,67648.00
2019-04-22T08:58:29.365Z,66368.00
2019-04-22T08:59:46.247Z,67872.00
2019-04-22T09:00:34.781Z,69536.00
2019-04-22T09:01:29.946Z,71616.00
2019-04-22T09:02:36.994Z,72512.00
2019-04-22T09:03:30.374Z,72192.00
2019-04-22T09:04:22.845Z,72000.00
2019-04-22T09:05:41.963Z,74176.00
2019-04-22T09:06:39.641Z,74912.00
2019-04-22T09:08:50.419Z,70016.00
2019-04-22T09:09:36.173Z,66944.00
2019-04-22T09:10:31.368Z,66400.00
2019-04-22T09:11:37.310Z,66720.00
2019-04-22T09:13:33.120Z,68480.00
2019-04-22T09:14:32.402Z,70368.00
2019-04-22T09:15:31.014Z,69408.00
2019-04-22T09:16:33.334Z,66016.00
2019-04-22T09:17:28.132Z,61120.00
2019-04-22T09:18:28.728Z,58944.00
2019-04-22T09:19:28.464Z,57984.00
2019-04-22T09:20:28.425Z,56512.00
2019-04-22T09:21:45.479Z,57376.00
2019-04-22T09:22:44.036Z,59712.00
2019-04-22T09:23:33.971Z,61632.00
2019-04-22T09:24:32.580Z,64352.00
2019-04-22T09:25:30.228Z,64864.00
2019-04-22T09:26:30.996Z,64640.00
2019-04-22T09:27:37.106Z,67200.00
2019-04-22T09:28:31.170Z,69312.00
2019-04-22T09:29:34.391Z,72672.00
2019-04-22T09:30:36.983Z,76832.00
2019-04-22T09:31:23.973Z,77280.00
2019-04-22T09:32:34.781Z,76384.00
2019-04-22T09:33:27.108Z,74592.00
2019-04-22T09:34:27.760Z,72224.00
2019-04-22T09:35:31.530Z,70592.00
2019-04-22T09:36:37.101Z,72384.00
2019-04-22T09:37:34.125Z,75648.00
2019-04-22T09:39:30.295Z,80128.00
2019-04-22T09:40:32.444Z,80128.00
2019-04-22T09:41:33.707Z,79616.00
2019-04-22T09:42:37.361Z,79232.00
2019-04-22T09:43:31.798Z,79264.00
2019-04-22T09:44:31.087Z,79552.00
2019-04-22T09:45:27.444Z,80832.00
2019-04-22T09:46:29.918Z,80288.00
2019-04-22T09:48:30.096Z,77632.00
2019-04-22T09:50:29.392Z,81440.00
2019-04-22T09:51:29.072Z,82624.00
2019-04-22T09:52:28.028Z,80832.00
2019-04-22T09:53:31.791Z,79808.00
2019-04-22T09:54:44.941Z,79840.00
2019-04-22T09:55:41.664Z,82944.00
2019-04-22T09:56:31.770Z,88192.00
2019-04-22T09:57:24.457Z,92416.00
2019-04-22T09:58:34.746Z,93632.00
2019-04-22T09:59:30.059Z,91584.00
2019-04-22T10:00:33.351Z,88000.00
2019-04-22T10:03:25.949Z,84736.00
2019-04-22T10:04:25.380Z,88544.00
2019-04-22T10:05:28.542Z,93568.00
2019-04-22T10:07:25.726Z,97344.00
2019-04-22T10:08:33.852Z,95040.00
2019-04-22T10:09:40.601Z,90464.00
2019-04-22T10:10:28.133Z,87904.00
2019-04-22T10:11:35.021Z,89632.00
2019-04-22T10:12:32.483Z,91680.00
2019-04-22T10:13:34.774Z,92704.00
2019-04-22T10:15:30.682Z,93856.00
2019-04-22T10:16:31.568Z,94624.00
2019-04-22T10:17:25.046Z,91968.00
2019-04-22T10:18:34.061Z,91872.00
2019-04-22T10:19:31.656Z,91776.00
2019-04-22T10:20:27.065Z,91744.00
2019-04-22T10:21:38.780Z,91648.00
2019-04-22T10:22:32.331Z,91776.00
2019-04-22T10:23:42.372Z,89312.00
2019-04-22T10:24:26.516Z,88640.00
2019-04-22T10:25:32.843Z,89088.00
2019-04-22T10:26:21.818Z,87616.00
2019-04-22T10:27:29.218Z,85632.00
2019-04-22T10:28:32.324Z,85696.00
2019-04-22T10:29:24.643Z,87072.00
2019-04-22T10:30:34.173Z,89344.00
2019-04-22T10:31:31.120Z,90880.00
2019-04-22T10:32:27.034Z,90784.00
2019-04-22T10:33:23.933Z,89568.00
2019-04-22T10:34:14.088Z,84608.00
2019-04-22T10:35:06.780Z,79840.00
2019-04-22T10:36:03.518Z,78048.00
2019-04-22T10:37:05.703Z,78880.00
2019-04-22T10:38:01.921Z,80448.00
2019-04-22T10:39:02.277Z,84032.00
2019-04-22T10:40:04.794Z,86240.00
2019-04-22T10:41:02.745Z,85024.00
2019-04-22T10:42:02.900Z,82752.00
2019-04-22T10:43:03.131Z,78848.00
2019-04-22T10:44:03.333Z,77024.00
2019-04-22T10:45:01.801Z,76160.00
2019-04-22T10:46:02.104Z,78176.00
2019-04-22T10:47:02.180Z,83648.00
2019-04-22T10:48:01.765Z,90656.00
2019-04-22T10:49:02.012Z,95168.00
2019-04-22T10:50:02.693Z,96576.00
2019-04-22T10:51:01.701Z,95040.00
2019-04-22T10:52:02.694Z,89504.00
2019-04-22T10:53:01.668Z,84512.00
2019-04-22T10:54:01.865Z,80928.00
2019-04-22T10:55:01.642Z,82496.00
2019-04-22T10:56:03.025Z,85376.00
2019-04-22T10:57:01.601Z,89024.00
2019-04-22T10:58:02.294Z,90432.00
2019-04-22T10:59:02.574Z,87168.00
2019-04-22T11:00:02.872Z,80608.00
2019-04-22T11:01:01.529Z,74656.00
2019-04-22T11:02:01.510Z,73280.00
2019-04-22T11:03:02.393Z,78528.00
2019-04-22T11:04:01.595Z,87680.00
2019-04-22T11:05:02.054Z,95232.00
2019-04-22T11:06:01.439Z,97056.00
2019-04-22T11:07:05.490Z,89600.00
2019-04-22T11:08:06.006Z,79648.00
2019-04-22T11:09:04.806Z,72704.00
2019-04-22T11:10:20.598Z,71040.00
2019-04-22T11:11:16.201Z,78400.00
2019-04-22T11:12:07.670Z,88384.00
2019-04-22T11:13:01.323Z,94432.00
2019-04-22T11:14:01.996Z,94496.00
2019-04-22T11:15:01.282Z,90304.00
2019-04-22T11:16:01.265Z,85600.00
2019-04-22T11:17:03.406Z,85248.00
2019-04-22T11:18:01.970Z,88704.00
2019-04-22T11:19:01.461Z,92224.00
2019-04-22T11:20:01.904Z,94080.00
2019-04-22T11:21:01.916Z,93184.00
2019-04-22T11:22:09.619Z,88608.00
2019-04-22T11:23:02.549Z,84352.00
2019-04-22T11:24:01.122Z,82560.00
2019-04-22T11:25:01.335Z,82016.00
2019-04-22T11:26:01.823Z,82464.00
2019-04-22T11:27:01.189Z,84736.00
2019-04-22T11:28:01.949Z,87392.00
2019-04-22T11:29:01.505Z,91456.00
2019-04-22T11:30:01.846Z,94880.00
2019-04-22T11:31:01.000Z,95424.00
2019-04-22T11:32:02.223Z,94144.00
2019-04-22T11:33:02.460Z,91968.00
2019-04-22T11:34:00.997Z,90528.00
2019-04-22T11:35:01.695Z,89664.00
2019-04-22T11:36:01.984Z,89312.00
2019-04-22T11:37:01.087Z,89152.00
2019-04-22T11:38:01.174Z,90752.00
2019-04-22T11:39:04.120Z,92768.00
2019-04-22T11:40:15.119Z,94400.00
2019-04-22T11:41:01.906Z,93088.00
2019-04-22T11:42:02.325Z,92224.00
2019-04-22T11:43:01.902Z,92032.00
2019-04-22T11:44:01.331Z,93184.00
2019-04-22T11:45:01.377Z,96192.00
2019-04-22T11:46:00.736Z,98912.00
2019-04-22T11:47:01.586Z,99424.00
2019-04-22T11:48:01.527Z,94304.00
2019-04-22T11:49:00.684Z,89280.00
2019-04-22T11:50:02.092Z,85152.00
2019-04-22T11:51:01.951Z,85024.00
2019-04-22T11:52:00.986Z,89408.00
2019-04-22T11:53:00.870Z,95296.00
2019-04-22T11:54:01.074Z,98560.00
2019-04-22T11:55:01.101Z,96448.00
2019-04-22T11:56:00.672Z,93568.00
2019-04-22T11:57:01.092Z,91264.00
2019-04-22T11:58:01.143Z,90688.00
2019-04-22T11:59:00.788Z,91104.00
2019-04-22T12:00:01.026Z,92128.00
2019-04-22T12:01:01.170Z,92512.00
2019-04-22T12:02:00.668Z,93088.00
2019-04-22T12:03:00.847Z,94848.00
2019-04-22T12:04:01.983Z,96736.00
2019-04-22T12:05:01.761Z,97152.00
2019-04-22T12:06:01.882Z,94848.00
2019-04-22T12:07:00.367Z,91488.00
2019-04-22T12:08:00.344Z,87392.00
2019-04-22T12:09:01.628Z,85152.00
2019-04-22T12:10:13.267Z,85376.00
2019-04-22T12:11:04.020Z,87360.00
2019-04-22T12:12:00.273Z,91520.00
2019-04-22T12:13:00.255Z,93472.00
2019-04-22T12:14:00.272Z,90496.00
2019-04-22T12:15:00.796Z,84832.00
2019-04-22T12:16:00.925Z,80544.00
2019-04-22T12:17:01.486Z,77984.00
2019-04-22T12:18:01.473Z,76256.00
2019-04-22T12:19:00.889Z,74624.00
2019-04-22T12:20:02.097Z,75360.00
2019-04-22T12:21:01.331Z,74464.00
2019-04-22T12:22:00.721Z,72224.00
2019-04-22T12:23:01.122Z,71616.00
2019-04-22T12:24:01.136Z,69920.00
2019-04-22T12:25:00.618Z,68352.00
2019-04-22T12:26:05.884Z,68416.00
2019-04-22T12:27:00.343Z,66752.00
2019-04-22T12:28:01.119Z,64416.00
2019-04-22T12:28:59.965Z,62112.00
2019-04-22T12:30:00.905Z,60224.00
2019-04-22T12:30:59.930Z,60608.00
2019-04-22T12:31:59.910Z,65920.00
2019-04-22T12:33:00.212Z,70432.00
2019-04-22T12:34:01.293Z,75808.00
2019-04-22T12:34:59.924Z,76960.00
2019-04-22T12:36:00.364Z,72448.00
2019-04-22T12:37:00.463Z,67168.00
2019-04-22T12:38:06.144Z,60896.00
2019-04-22T12:38:59.808Z,58752.00
2019-04-22T12:40:00.387Z,57984.00
2019-04-22T12:41:04.367Z,59136.00
2019-04-22T12:42:00.375Z,61376.00
2019-04-22T12:43:04.151Z,63456.00
2019-04-22T12:44:01.004Z,65696.00
2019-04-22T12:45:00.463Z,68288.00
2019-04-22T12:46:00.473Z,70240.00
2019-04-22T12:47:01.982Z,68928.00
2019-04-22T12:48:00.096Z,65376.00
2019-04-22T12:49:00.293Z,61888.00
2019-04-22T12:50:11.824Z,57408.00
2019-04-22T12:51:00.830Z,54752.00
2019-04-22T12:52:00.985Z,56960.00
2019-04-22T12:53:06.902Z,62816.00
2019-04-22T12:53:59.515Z,69536.00
2019-04-22T12:54:59.497Z,73888.00
2019-04-22T12:56:01.141Z,71520.00
2019-04-22T12:56:59.816Z,66016.00
2019-04-22T12:58:02.427Z,59904.00
2019-04-22T12:58:59.513Z,57248.00
2019-04-22T12:59:59.632Z,57632.00
2019-04-22T13:00:59.393Z,62592.00
2019-04-22T13:02:00.681Z,66400.00
2019-04-22T13:02:59.355Z,73312.00
2019-04-22T13:04:05.727Z,77888.00
2019-04-22T13:05:00.630Z,76672.00
2019-04-22T13:05:59.492Z,71072.00
2019-04-22T13:06:59.700Z,65248.00
2019-04-22T13:08:00.106Z,61728.00
2019-04-22T13:09:00.239Z,60768.00
2019-04-22T13:09:59.365Z,60832.00
2019-04-22T13:11:05.834Z,61344.00
2019-04-22T13:11:59.297Z,63712.00
2019-04-22T13:13:00.753Z,66656.00
2019-04-22T13:13:59.156Z,68096.00
2019-04-22T13:14:59.240Z,67040.00
2019-04-22T13:15:59.391Z,65760.00
2019-04-22T13:16:59.787Z,64640.00
2019-04-22T13:18:05.771Z,66432.00
2019-04-22T13:19:04.568Z,71904.00
2019-04-22T13:20:00.381Z,73728.00
2019-04-22T13:21:00.341Z,74496.00
2019-04-22T13:21:59.023Z,72736.00
2019-04-22T13:22:58.996Z,69344.00
2019-04-22T13:23:59.296Z,66816.00
2019-04-22T13:24:59.722Z,66432.00
2019-04-22T13:25:59.130Z,66976.00
2019-04-22T13:26:59.163Z,70432.00
2019-04-22T13:27:58.919Z,70624.00
2019-04-22T13:28:59.108Z,73920.00
2019-04-22T13:29:59.491Z,76480.00
2019-04-22T13:31:01.739Z,75040.00
2019-04-22T13:31:58.833Z,68768.00
2019-04-22T13:32:58.817Z,64704.00
2019-04-22T13:34:01.750Z,64640.00
2019-04-22T13:35:01.574Z,69632.00
2019-04-22T13:35:59.608Z,73216.00
2019-04-22T13:36:59.031Z,74816.00
2019-04-22T13:37:59.342Z,72576.00
2019-04-22T13:38:58.891Z,67744.00
2019-04-22T13:39:58.994Z,65664.00
2019-04-22T13:41:12.469Z,63136.00
2019-04-22T13:42:03.561Z,61440.00
2019-04-22T13:42:58.766Z,61888.00
2019-04-22T13:43:59.825Z,63264.00
2019-04-22T13:45:00.110Z,66048.00
2019-04-22T13:45:58.577Z,68320.00
2019-04-22T13:47:14.743Z,68672.00
2019-04-22T13:48:16.750Z,69184.00
2019-04-22T13:49:23.956Z,68000.00
2019-04-22T13:50:36.432Z,65760.00
2019-04-22T13:51:32.441Z,63872.00
2019-04-22T13:53:42.576Z,61888.00
2019-04-22T13:55:27.286Z,64512.00
2019-04-22T13:56:19.327Z,66176.00
2019-04-22T13:57:19.754Z,66272.00
2019-04-22T13:58:12.185Z,64416.00
2019-04-22T13:59:08.789Z,63232.00
2019-04-22T14:00:00.712Z,63136.00
2019-04-22T14:00:58.599Z,62144.00
2019-04-22T14:01:58.832Z,62496.00
2019-04-22T14:02:58.322Z,64256.00
2019-04-22T14:03:58.799Z,67232.00